createdAt,value
2023-02-02T00:00:23.923Z,0.80
2023-02-02T00:03:10.728Z,0.60
2023-02-02T00:05:56.124Z,0.77
2023-02-02T00:08:41.459Z,0.88
2023-02-02T00:11:27.382Z,0.70
2023-02-02T00:14:12.996Z,1.15
2023-02-02T00:16:58.279Z,1.08
2023-02-02T00:19:43.735Z,0.65
2023-02-02T00:22:29.140Z,1.20
2023-02-02T00:25:14.696Z,0.93
2023-02-02T00:28:00.100Z,1.38
2023-02-02T00:30:45.576Z,0.60
2023-02-02T00:33:30.810Z,0.80
2023-02-02T00:36:17.113Z,0.52
2023-02-02T00:39:02.467Z,1.60
2023-02-02T00:41:47.997Z,0.80
2023-02-02T00:44:51.619Z,0.70
2023-02-02T00:47:37.134Z,0.80
2023-02-02T00:50:22.559Z,1.35
2023-02-02T00:53:07.872Z,1.00
2023-02-02T00:55:53.097Z,0.90
2023-02-02T00:58:38.438Z,1.00
2023-02-02T01:01:24.028Z,0.90
2023-02-02T01:04:09.331Z,1.00
2023-02-02T01:06:54.803Z,0.90
2023-02-02T01:09:39.973Z,0.90
2023-02-02T01:12:25.348Z,0.65
2023-02-02T01:15:12.122Z,0.73
2023-02-02T01:17:57.999Z,0.50
2023-02-02T01:20:43.100Z,0.85
2023-02-02T01:23:29.042Z,0.88
2023-02-02T01:26:15.583Z,1.05
2023-02-02T01:29:01.084Z,0.80
2023-02-02T01:31:46.823Z,0.75
2023-02-02T01:34:31.935Z,0.90
2023-02-02T01:37:17.171Z,0.65
2023-02-02T01:40:02.691Z,1.00
2023-02-02T01:42:48.002Z,1.20
2023-02-02T01:45:33.491Z,0.93
2023-02-02T01:48:21.696Z,0.80
2023-02-02T01:51:09.542Z,1.15
2023-02-02T01:53:57.991Z,0.70
2023-02-02T01:56:54.560Z,0.80
2023-02-02T01:59:41.410Z,0.63
2023-02-02T02:02:27.923Z,0.55
2023-02-02T02:05:18.601Z,0.70
2023-02-02T02:08:28.975Z,0.77
2023-02-02T02:11:14.787Z,0.80
2023-02-02T02:14:21.475Z,0.75
2023-02-02T02:17:25.465Z,0.90
2023-02-02T02:20:32.011Z,0.60
2023-02-02T02:24:05.276Z,1.08
2023-02-02T02:27:11.736Z,0.73
2023-02-02T02:29:59.803Z,0.70
2023-02-02T02:33:02.885Z,0.80
2023-02-02T02:36:02.943Z,0.43
2023-02-02T02:38:57.842Z,0.70
2023-02-02T02:41:48.316Z,0.88
2023-02-02T02:44:34.939Z,0.50
2023-02-02T02:47:20.764Z,0.63
2023-02-02T02:50:06.733Z,0.68
2023-02-02T02:53:00.233Z,0.70
2023-02-02T02:56:06.623Z,0.50
2023-02-02T02:59:02.442Z,0.80
2023-02-02T03:02:21.848Z,1.35
2023-02-02T03:05:20.764Z,0.55
2023-02-02T03:08:31.826Z,0.70
2023-02-02T03:11:17.177Z,0.75
2023-02-02T03:14:03.233Z,0.82
2023-02-02T03:16:51.574Z,0.60
2023-02-02T03:19:37.055Z,0.82
2023-02-02T03:22:22.572Z,0.80
2023-02-02T03:25:11.164Z,0.52
2023-02-02T03:27:58.025Z,0.60
2023-02-02T03:30:44.409Z,0.50
2023-02-02T03:33:31.482Z,0.73
2023-02-02T03:36:16.506Z,0.60
2023-02-02T03:39:01.854Z,0.60
2023-02-02T03:41:47.134Z,0.60
2023-02-02T03:44:32.519Z,0.70
2023-02-02T03:47:17.939Z,0.65
2023-02-02T03:50:03.402Z,0.52
2023-02-02T03:52:48.754Z,0.63
2023-02-02T03:55:35.049Z,0.70
2023-02-02T03:58:22.271Z,0.65
2023-02-02T04:01:11.859Z,0.50
2023-02-02T04:03:58.354Z,0.88
2023-02-02T04:06:43.537Z,0.50
2023-02-02T04:09:29.049Z,0.47
2023-02-02T04:12:14.392Z,0.43
2023-02-02T04:14:59.774Z,0.50
2023-02-02T04:17:45.062Z,0.90
2023-02-02T04:20:30.461Z,0.77
2023-02-02T04:23:15.891Z,0.65
2023-02-02T04:26:01.179Z,1.40
2023-02-02T04:28:46.539Z,0.40
2023-02-02T04:31:32.044Z,0.60
2023-02-02T04:34:17.449Z,0.57
2023-02-02T04:37:02.815Z,0.82
2023-02-02T04:39:48.913Z,0.80
2023-02-02T04:42:35.008Z,0.63
2023-02-02T04:45:20.072Z,0.70
2023-02-02T04:48:05.644Z,0.80
2023-02-02T04:50:51.072Z,1.05
2023-02-02T04:53:36.412Z,0.60
2023-02-02T04:56:22.518Z,0.60
2023-02-02T04:59:07.813Z,0.68
2023-02-02T05:01:53.280Z,1.25
2023-02-02T05:04:38.667Z,0.60
2023-02-02T05:07:24.046Z,0.80
2023-02-02T05:10:10.394Z,0.70
2023-02-02T05:12:56.040Z,0.40
2023-02-02T05:15:41.144Z,1.20
2023-02-02T05:18:26.526Z,0.80
2023-02-02T05:21:12.054Z,0.63
2023-02-02T05:23:57.789Z,0.75
2023-02-02T05:26:43.131Z,0.90
2023-02-02T05:29:29.512Z,0.70
2023-02-02T05:32:14.857Z,0.77
2023-02-02T05:35:00.129Z,0.80
2023-02-02T05:37:45.443Z,1.15
2023-02-02T05:40:31.107Z,0.75
2023-02-02T05:43:16.271Z,0.77
2023-02-02T05:46:01.947Z,1.05
2023-02-02T05:48:47.041Z,1.98
2023-02-02T05:51:35.017Z,0.77
2023-02-02T05:54:20.771Z,0.90
2023-02-02T05:57:05.745Z,0.80
2023-02-02T05:59:51.279Z,1.25
2023-02-02T06:02:36.685Z,1.13
2023-02-02T06:05:22.398Z,1.00
2023-02-02T06:08:07.879Z,0.95
2023-02-02T06:10:54.046Z,1.15
2023-02-02T06:13:39.213Z,1.17
2023-02-02T06:16:25.408Z,1.65
2023-02-02T06:19:10.595Z,1.38
2023-02-02T06:21:55.837Z,1.15
2023-02-02T06:24:41.239Z,2.00
2023-02-02T06:27:26.632Z,0.95
2023-02-02T06:30:13.290Z,0.88
2023-02-02T06:32:59.499Z,1.10
2023-02-02T06:35:44.731Z,0.82
2023-02-02T06:38:30.052Z,1.65
2023-02-02T06:41:15.416Z,1.15
2023-02-02T06:44:01.427Z,0.90
2023-02-02T06:46:46.904Z,1.00
2023-02-02T06:49:31.825Z,1.08
2023-02-02T06:52:17.083Z,1.20
2023-02-02T06:55:02.566Z,0.93
2023-02-02T06:57:47.793Z,0.90
2023-02-02T07:00:33.326Z,1.00
2023-02-02T07:03:21.284Z,0.73
2023-02-02T07:06:17.935Z,0.90
2023-02-02T07:09:03.611Z,0.93
2023-02-02T07:11:49.004Z,0.80
2023-02-02T07:14:34.338Z,1.10
2023-02-02T07:17:20.165Z,1.20
2023-02-02T07:20:05.761Z,1.05
2023-02-02T07:22:51.080Z,1.48
2023-02-02T07:25:36.377Z,1.40
2023-02-02T07:28:21.679Z,1.05
2023-02-02T07:31:15.195Z,1.20
2023-02-02T07:34:00.604Z,1.13
2023-02-02T07:36:45.981Z,1.08
2023-02-02T07:39:31.265Z,1.00
2023-02-02T07:42:16.634Z,1.50
2023-02-02T07:45:24.503Z,1.10
2023-02-02T07:48:07.346Z,1.17
2023-02-02T07:50:52.939Z,1.17
2023-02-02T07:53:38.390Z,1.00
2023-02-02T07:56:26.713Z,1.15
2023-02-02T07:59:11.939Z,1.27
2023-02-02T08:01:57.176Z,1.08
2023-02-02T08:04:42.579Z,1.08
2023-02-02T08:07:28.254Z,0.98
2023-02-02T08:10:13.311Z,2.17
2023-02-02T08:12:58.695Z,1.58
2023-02-02T08:15:44.057Z,1.40
2023-02-02T08:18:29.528Z,1.70
2023-02-02T08:21:15.917Z,1.73
2023-02-02T08:24:02.472Z,1.20
2023-02-02T08:26:47.672Z,0.98
2023-02-02T08:29:32.970Z,0.85
2023-02-02T08:32:18.289Z,1.00
2023-02-02T08:35:03.650Z,1.27
2023-02-02T08:37:50.202Z,1.40
2023-02-02T08:40:35.440Z,1.23
2023-02-02T08:43:20.714Z,0.90
2023-02-02T08:46:07.636Z,0.95
2023-02-02T08:48:52.870Z,1.02
2023-02-02T08:51:38.185Z,1.00
2023-02-02T08:54:23.615Z,0.90
2023-02-02T08:57:09.224Z,1.05
2023-02-02T08:59:54.536Z,1.02
2023-02-02T09:02:39.841Z,1.08
2023-02-02T09:05:25.522Z,0.95
2023-02-02T09:08:11.325Z,0.77
2023-02-02T09:10:56.654Z,0.80
2023-02-02T09:13:45.657Z,1.30
2023-02-02T09:16:31.075Z,1.15
2023-02-02T09:19:17.130Z,0.77
2023-02-02T09:22:02.159Z,0.88
2023-02-02T09:24:47.473Z,1.70
2023-02-02T09:27:37.328Z,0.93
2023-02-02T09:30:22.766Z,1.08
2023-02-02T09:33:09.178Z,1.02
2023-02-02T09:35:54.300Z,1.20
2023-02-02T09:38:40.514Z,0.80
2023-02-02T09:41:38.045Z,1.15
2023-02-02T09:44:45.945Z,0.88
2023-02-02T09:47:41.658Z,0.90
2023-02-02T09:50:51.749Z,1.00
2023-02-02T09:53:55.068Z,1.10
2023-02-02T09:56:46.997Z,0.90
2023-02-02T09:59:39.627Z,1.00
2023-02-02T10:02:31.926Z,1.10
2023-02-02T10:05:23.029Z,1.35
2023-02-02T10:08:18.440Z,1.00
2023-02-02T10:11:20.306Z,0.90
2023-02-02T10:14:20.848Z,0.65
2023-02-02T10:17:35.163Z,0.70
2023-02-02T10:20:31.752Z,0.85
2023-02-02T10:23:34.102Z,0.57
2023-02-02T10:26:22.771Z,0.90
2023-02-02T10:29:21.959Z,0.90
2023-02-02T10:32:43.488Z,2.78
2023-02-02T10:35:38.725Z,2.00
2023-02-02T10:38:50.789Z,2.67
2023-02-02T10:41:55.737Z,1.67
2023-02-02T10:44:52.394Z,1.75
2023-02-02T10:47:38.207Z,1.98
2023-02-02T10:50:24.251Z,1.83
2023-02-02T10:53:13.917Z,1.30
2023-02-02T10:56:08.606Z,1.00
2023-02-02T10:59:05.869Z,1.20
2023-02-02T11:01:51.918Z,1.20
2023-02-02T11:04:55.997Z,1.00
2023-02-02T11:07:41.705Z,1.13
2023-02-02T11:10:27.412Z,1.10
2023-02-02T11:13:19.167Z,1.10
2023-02-02T11:16:16.800Z,1.10
2023-02-02T11:19:21.171Z,1.30
2023-02-02T11:22:06.494Z,2.42
2023-02-02T11:24:53.555Z,2.95
2023-02-02T11:27:41.303Z,2.13
2023-02-02T11:30:35.712Z,2.47
2023-02-02T11:33:29.931Z,2.05
2023-02-02T11:36:20.834Z,2.58
2023-02-02T11:39:22.013Z,2.03
2023-02-02T11:42:16.621Z,2.30
2023-02-02T11:45:03.838Z,2.95
2023-02-02T11:47:51.205Z,2.40
2023-02-02T11:50:36.580Z,2.10
2023-02-02T11:53:35.891Z,1.52
2023-02-02T11:56:26.762Z,1.80
2023-02-02T11:59:41.514Z,1.38
2023-02-02T12:02:30.235Z,1.40
2023-02-02T12:05:35.044Z,1.33
2023-02-02T12:08:20.744Z,1.67
2023-02-02T12:11:07.277Z,2.05
2023-02-02T12:13:58.282Z,2.05
2023-02-02T12:16:53.658Z,2.42
2023-02-02T12:20:12.613Z,2.40
2023-02-02T12:23:00.648Z,1.98
2023-02-02T12:25:48.890Z,1.55
2023-02-02T12:28:42.121Z,1.80
2023-02-02T12:31:36.353Z,1.90
2023-02-02T12:34:51.085Z,2.90
2023-02-02T12:37:52.499Z,3.33
2023-02-02T12:40:58.458Z,3.33
2023-02-02T12:43:50.222Z,2.42
2023-02-02T12:46:56.967Z,1.43
2023-02-02T12:49:45.354Z,1.25
2023-02-02T12:52:40.304Z,1.58
2023-02-02T12:55:46.920Z,1.42
2023-02-02T12:58:53.688Z,2.38
2023-02-02T13:01:56.623Z,1.77
2023-02-02T13:04:41.682Z,1.80
2023-02-02T13:07:41.397Z,1.50
2023-02-02T13:10:38.424Z,2.33
2023-02-02T13:13:29.318Z,3.85
2023-02-02T13:16:14.503Z,5.03
2023-02-02T13:19:07.498Z,4.63
2023-02-02T13:21:56.798Z,5.60
2023-02-02T13:24:44.992Z,6.45
2023-02-02T13:27:31.300Z,5.28
2023-02-02T13:30:33.050Z,3.72
2023-02-02T13:33:29.566Z,4.28
2023-02-02T13:36:29.311Z,3.92
2023-02-02T13:39:48.300Z,3.30
2023-02-02T13:42:45.345Z,3.10
2023-02-02T13:45:53.979Z,2.92
2023-02-02T13:49:07.907Z,2.70
2023-02-02T13:52:35.413Z,3.13
2023-02-02T13:56:04.346Z,3.17
2023-02-02T13:59:10.868Z,2.20
2023-02-02T14:01:58.225Z,2.28
2023-02-02T14:04:54.565Z,1.92
2023-02-02T14:07:45.104Z,2.00
2023-02-02T14:10:51.413Z,2.40
2023-02-02T14:14:07.284Z,2.38
2023-02-02T14:16:55.687Z,1.70
2023-02-02T14:19:44.022Z,1.67
2023-02-02T14:22:41.895Z,1.58
2023-02-02T14:25:30.015Z,1.40
2023-02-02T14:28:42.691Z,1.60
2023-02-02T14:31:41.881Z,2.20
2023-02-02T14:34:44.069Z,2.33
2023-02-02T14:37:41.618Z,3.35
2023-02-02T14:40:58.487Z,3.28
2023-02-02T14:43:50.954Z,3.45
2023-02-02T14:46:40.979Z,4.28
2023-02-02T14:49:35.432Z,3.10
2023-02-02T14:52:22.980Z,2.95
2023-02-02T14:55:19.466Z,2.85
2023-02-02T14:58:06.645Z,2.55
2023-02-02T15:01:13.448Z,3.17
2023-02-02T15:04:23.352Z,2.60
2023-02-02T15:07:23.602Z,2.72
2023-02-02T15:10:10.193Z,2.25
2023-02-02T15:13:06.907Z,2.40
2023-02-02T15:16:04.753Z,1.55
2023-02-02T15:19:00.097Z,1.80
2023-02-02T15:21:47.752Z,2.10
2023-02-02T15:24:36.137Z,2.78
2023-02-02T15:27:25.009Z,2.88
2023-02-02T15:30:15.524Z,2.97
2023-02-02T15:33:07.554Z,2.28
2023-02-02T15:35:54.425Z,1.70
2023-02-02T15:38:42.558Z,2.75
2023-02-02T15:41:32.778Z,2.45
2023-02-02T15:44:19.640Z,2.50
2023-02-02T15:47:15.771Z,1.70
2023-02-02T15:50:04.060Z,2.65
2023-02-02T15:52:51.382Z,2.78
2023-02-02T15:55:36.631Z,2.60
2023-02-02T15:58:28.184Z,2.92
2023-02-02T16:01:17.281Z,2.63
2023-02-02T16:04:33.608Z,2.75
2023-02-02T16:07:26.308Z,3.30
2023-02-02T16:13:03.814Z,5.13
2023-02-02T16:15:59.173Z,4.85
2023-02-02T16:18:44.696Z,8.20
2023-02-02T16:21:30.917Z,10.32
2023-02-02T16:24:22.658Z,10.35
2023-02-02T16:27:12.846Z,8.10
2023-02-02T16:30:01.804Z,7.43
2023-02-02T16:32:47.436Z,6.18
2023-02-02T16:35:38.469Z,6.03
2023-02-02T16:38:33.886Z,6.53
2023-02-02T16:41:35.952Z,5.20
2023-02-02T16:44:41.096Z,4.90
2023-02-02T16:47:26.102Z,5.22
2023-02-02T16:50:38.086Z,5.75
2023-02-02T16:53:24.222Z,5.63
2023-02-02T16:56:19.370Z,5.50
2023-02-02T16:59:25.201Z,6.28
2023-02-02T17:02:29.171Z,8.35
2023-02-02T17:05:51.217Z,9.40
2023-02-02T17:08:38.661Z,9.73
2023-02-02T17:11:26.898Z,7.95
2023-02-02T17:14:20.402Z,8.52
2023-02-02T17:17:08.424Z,8.82
2023-02-02T17:19:53.906Z,7.40
2023-02-02T17:22:41.782Z,6.22
2023-02-02T17:25:32.364Z,6.18
2023-02-02T17:28:20.464Z,5.03
2023-02-02T17:31:11.611Z,5.32
2023-02-02T17:33:57.064Z,6.20
2023-02-02T17:36:43.699Z,7.22
2023-02-02T17:39:28.677Z,5.97
2023-02-02T17:42:27.097Z,7.03
2023-02-02T17:45:18.674Z,5.63
2023-02-02T17:48:04.844Z,5.30
2023-02-02T17:50:50.776Z,5.95
2023-02-02T17:53:35.999Z,5.18
2023-02-02T17:56:22.019Z,5.18
2023-02-02T17:59:07.904Z,5.68
2023-02-02T18:01:54.990Z,6.57
2023-02-02T18:04:40.551Z,7.20
2023-02-02T18:07:25.907Z,6.55
2023-02-02T18:10:13.487Z,7.68
2023-02-02T18:12:58.919Z,9.02
2023-02-02T18:15:44.780Z,8.52
2023-02-02T18:18:29.966Z,9.10
2023-02-02T18:21:15.393Z,8.20
2023-02-02T18:24:00.698Z,7.70
2023-02-02T18:26:46.148Z,8.07
2023-02-02T18:29:31.509Z,7.38
2023-02-02T18:32:17.715Z,6.47
2023-02-02T18:35:03.427Z,6.35
2023-02-02T18:37:49.244Z,7.45
2023-02-02T18:40:34.343Z,8.27
2023-02-02T18:43:19.939Z,8.73
2023-02-02T18:46:08.991Z,9.35
2023-02-02T18:48:55.318Z,8.25
2023-02-02T18:51:41.815Z,7.63
2023-02-02T18:54:26.895Z,6.15
2023-02-02T18:57:13.991Z,8.60
2023-02-02T18:59:59.367Z,11.85
2023-02-02T19:02:44.629Z,14.20
2023-02-02T19:05:48.538Z,15.38
2023-02-02T19:08:34.041Z,14.40
2023-02-02T19:11:22.660Z,16.42
2023-02-02T19:14:24.697Z,18.13
2023-02-02T19:17:21.427Z,20.80
2023-02-02T19:20:35.667Z,25.42
2023-02-02T19:23:25.675Z,20.50
2023-02-02T19:26:26.061Z,17.70
2023-02-02T19:29:16.751Z,18.20
2023-02-02T19:32:14.798Z,21.10
2023-02-02T19:35:04.570Z,18.60
2023-02-02T19:37:58.830Z,14.65
2023-02-02T19:40:44.664Z,11.63
2023-02-02T19:43:30.218Z,11.10
2023-02-02T19:46:22.639Z,12.15
2023-02-02T19:51:58.907Z,9.90
2023-02-02T19:54:45.103Z,10.57
2023-02-02T19:57:41.794Z,9.93
2023-02-02T20:00:30.104Z,9.02
2023-02-02T20:03:26.722Z,8.40
2023-02-02T20:06:30.586Z,8.40
2023-02-02T20:09:18.191Z,8.20
2023-02-02T20:12:22.529Z,7.60
2023-02-02T20:15:28.110Z,8.77
2023-02-02T20:18:34.644Z,8.77
2023-02-02T20:21:41.170Z,7.82
2023-02-02T20:24:42.179Z,7.20
2023-02-02T20:27:28.640Z,8.80
2023-02-02T20:30:30.336Z,7.80
2023-02-02T20:33:24.321Z,7.47
2023-02-02T20:36:25.304Z,6.70
2023-02-02T20:39:34.648Z,6.53
2023-02-02T20:42:20.313Z,6.10
2023-02-02T20:45:06.648Z,5.13
2023-02-02T20:47:52.438Z,5.43
2023-02-02T20:50:37.714Z,4.78
2023-02-02T20:53:22.896Z,4.82
2023-02-02T20:56:08.202Z,4.43
2023-02-02T20:58:53.583Z,4.50
2023-02-02T21:01:39.053Z,4.18
2023-02-02T21:04:24.579Z,3.60
2023-02-02T21:07:09.977Z,3.92
2023-02-02T21:09:55.581Z,3.50
2023-02-02T21:12:41.093Z,3.83
2023-02-02T21:15:26.538Z,3.03
2023-02-02T21:18:11.889Z,3.63
2023-02-02T21:20:57.242Z,2.88
2023-02-02T21:23:47.312Z,2.50
2023-02-02T21:26:32.522Z,2.55
2023-02-02T21:29:18.134Z,2.45
2023-02-02T21:32:04.427Z,2.47
2023-02-02T21:34:50.099Z,2.30
2023-02-02T21:37:37.238Z,2.63
2023-02-02T21:40:29.608Z,2.80
2023-02-02T21:43:18.943Z,3.95
2023-02-02T21:46:04.183Z,3.35
2023-02-02T21:48:49.617Z,3.60
2023-02-02T21:51:37.729Z,3.65
2023-02-02T21:54:26.193Z,3.40
2023-02-02T21:57:24.420Z,2.83
2023-02-02T22:00:32.376Z,2.15
2023-02-02T22:03:36.739Z,2.00
2023-02-02T22:06:29.956Z,1.80
2023-02-02T22:09:21.202Z,1.77
2023-02-02T22:12:17.564Z,1.55
2023-02-02T22:15:04.849Z,1.92
2023-02-02T22:17:49.958Z,2.10
2023-02-02T22:20:37.057Z,2.83
2023-02-02T22:23:25.111Z,2.83
2023-02-02T22:26:29.258Z,3.38
2023-02-02T22:29:18.213Z,3.95
2023-02-02T22:32:03.479Z,4.28
2023-02-02T22:34:48.890Z,3.90
2023-02-02T22:37:34.323Z,4.88
2023-02-02T22:40:22.738Z,4.35
2023-02-02T22:43:07.870Z,4.38
2023-02-02T22:45:53.323Z,4.20
2023-02-02T22:48:38.639Z,5.50
2023-02-02T22:51:24.017Z,3.90
2023-02-02T22:54:09.661Z,5.05
2023-02-02T22:56:55.059Z,6.00
2023-02-02T22:59:40.462Z,4.97
2023-02-02T23:02:25.937Z,4.30
2023-02-02T23:05:13.812Z,4.50
2023-02-02T23:07:58.910Z,4.32
2023-02-02T23:10:44.436Z,6.00
2023-02-02T23:13:29.754Z,7.15
2023-02-02T23:16:15.833Z,6.63
2023-02-02T23:19:01.549Z,6.03
2023-02-02T23:21:46.733Z,4.90
2023-02-02T23:24:32.226Z,4.35
2023-02-02T23:27:17.602Z,3.70
2023-02-02T23:30:03.546Z,3.47
2023-02-02T23:32:49.030Z,3.05
2023-02-02T23:35:34.650Z,2.85
2023-02-02T23:38:19.725Z,2.80
2023-02-02T23:41:05.300Z,3.75
2023-02-02T23:43:50.696Z,2.85
2023-02-02T23:46:38.173Z,3.55
2023-02-02T23:49:23.627Z,3.10
2023-02-02T23:52:08.958Z,3.20
2023-02-02T23:54:55.054Z,3.53
2023-02-02T23:57:40.536Z,3.05
